Time;durP1;ratioP1;P1;durP2;ratioP2;P2;SDS_P1;SDS_P2;PMS_P1;PMS_P2;Temp;Humidity;BMP_temperature;BMP_pressure;BME280_temperature;BME280_humidity;BME280_pressure;Samples;Min_cycle;Max_cycle;Signal;HPM_P1;HPM_P2
2023/12/21 00:01:36;;;;;;;1.52;1.00;;;22.70;51.70;;;;;;4852832;28;92656;-83
2023/12/21 00:04:02;;;;;;;;;;;22.70;51.80;;;;;;4853163;28;92636;-84
2023/12/21 00:06:28;;;;;;;0.70;0.68;;;22.70;51.70;;;;;;4853464;28;93733;-83
2023/12/21 00:08:54;;;;;;;1.75;1.10;;;22.60;51.60;;;;;;4850164;28;92695;-84
2023/12/21 00:11:20;;;;;;;1.60;1.02;;;22.60;51.60;;;;;;4852483;28;93116;-83
2023/12/21 00:13:46;;;;;;;2.05;1.05;;;22.60;51.70;;;;;;4852475;29;91219;-82
2023/12/21 00:16:12;;;;;;;1.75;1.00;;;22.60;51.80;;;;;;4852028;28;92687;-83
2023/12/21 00:18:38;;;;;;;1.95;1.02;;;22.60;52.40;;;;;;4852163;28;92826;-84
2023/12/21 00:21:04;;;;;;;1.10;0.90;;;22.60;51.80;;;;;;4851494;28;93402;-83
2023/12/21 00:23:30;;;;;;;1.75;0.80;;;22.50;51.80;;;;;;4852709;28;92586;-85
2023/12/21 00:25:55;;;;;;;1.42;1.00;;;22.50;51.90;;;;;;4854265;28;94580;-83
2023/12/21 00:28:21;;;;;;;2.47;1.23;;;22.50;51.90;;;;;;4856451;28;92324;-83
2023/12/21 00:30:47;;;;;;;1.17;1.00;;;22.50;51.90;;;;;;4858337;28;92673;-85
2023/12/21 00:33:12;;;;;;;2.15;1.15;;;22.50;51.80;;;;;;4859115;28;92040;-85
2023/12/21 00:35:38;;;;;;;2.05;1.40;;;22.40;51.80;;;;;;4857192;28;93170;-83
2023/12/21 00:38:04;;;;;;;1.52;0.95;;;22.40;51.80;;;;;;4871173;28;95133;-83
2023/12/21 00:40:29;;;;;;;1.35;0.95;;;22.40;51.80;;;;;;4856798;29;92664;-82
2023/12/21 00:42:57;;;;;;;1.42;1.00;;;22.40;51.70;;;;;;4856769;28;92584;-83
2023/12/21 00:45:22;;;;;;;1.33;0.90;;;22.30;51.90;;;;;;4854925;28;93632;-83
2023/12/21 00:47:48;;;;;;;2.10;1.20;;;22.30;51.80;;;;;;4853600;28;93607;-83
2023/12/21 00:50:15;;;;;;;1.48;0.93;;;22.30;51.90;;;;;;4854635;29;92468;-86
2023/12/21 00:52:40;;;;;;;1.33;1.00;;;22.30;51.90;;;;;;4855568;28;92580;-84
2023/12/21 00:55:06;;;;;;;1.88;1.10;;;22.30;52.00;;;;;;4855992;28;95582;-84
2023/12/21 00:57:32;;;;;;;1.40;0.90;;;22.30;51.90;;;;;;4856739;28;94737;-83
2023/12/21 00:59:58;;;;;;;1.65;0.88;;;22.20;51.90;;;;;;4855996;29;92491;-83
2023/12/21 01:02:23;;;;;;;1.50;0.98;;;22.20;51.90;;;;;;4855119;28;92333;-84
2023/12/21 01:04:49;;;;;;;2.50;1.30;;;22.20;51.80;;;;;;4855343;28;94747;-84
2023/12/21 01:07:15;;;;;;;1.13;0.85;;;22.20;51.80;;;;;;4855339;28;92517;-83
2023/12/21 01:09:40;;;;;;;1.00;0.82;;;22.20;51.90;;;;;;4857324;29;93903;-83
2023/12/21 01:12:07;;;;;;;1.70;1.13;;;22.20;51.90;;;;;;4855184;29;92736;-83
2023/12/21 01:14:32;;;;;;;1.42;0.88;;;22.20;51.80;;;;;;4853693;28;93147;-84
2023/12/21 01:16:58;;;;;;;1.75;1.20;;;22.20;51.80;;;;;;4855696;28;92348;-84
2023/12/21 01:19:24;;;;;;;2.20;1.10;;;22.20;51.90;;;;;;4857245;28;92071;-84
2023/12/21 01:21:50;;;;;;;1.02;0.70;;;22.10;51.80;;;;;;4857623;29;92668;-86
2023/12/21 01:24:15;;;;;;;2.17;1.13;;;22.10;52.00;;;;;;4856716;29;92886;-84
2023/12/21 01:26:42;;;;;;;0.88;0.82;;;22.10;51.90;;;;;;4856588;28;91819;-83
2023/12/21 01:29:08;;;;;;;1.35;0.90;;;22.10;52.00;;;;;;4858321;28;92067;-86
2023/12/21 01:31:33;;;;;;;0.95;0.70;;;22.10;52.00;;;;;;4858822;28;92027;-84
2023/12/21 01:34:01;;;;;;;1.75;1.02;;;22.10;52.00;;;;;;4856943;28;94432;-84
2023/12/21 01:36:27;;;;;;;1.65;0.88;;;22.10;52.00;;;;;;4865259;28;93880;-87
2023/12/21 01:38:52;;;;;;;1.17;0.70;;;22.00;52.00;;;;;;4868905;29;91671;-81
2023/12/21 01:41:18;;;;;;;2.00;1.15;;;22.00;52.00;;;;;;4871487;29;92621;-86
2023/12/21 01:43:44;;;;;;;1.30;1.00;;;22.00;52.00;;;;;;4869973;28;96220;-82
2023/12/21 01:46:10;;;;;;;1.77;0.90;;;22.00;52.00;;;;;;4870805;28;91888;-83
2023/12/21 01:48:36;;;;;;;1.85;1.00;;;22.00;52.00;;;;;;4872625;29;92040;-83
2023/12/21 01:51:04;;;;;;;1.20;0.82;;;22.00;51.90;;;;;;4872148;29;91273;-84
2023/12/21 01:53:31;;;;;;;1.40;0.70;;;22.00;52.00;;;;;;4873045;29;92419;-84
2023/12/21 01:55:59;;;;;;;2.75;1.05;;;21.90;51.90;;;;;;4882454;28;94767;-86
2023/12/21 01:58:24;;;;;;;2.08;1.13;;;21.90;51.90;;;;;;4881021;28;92658;-83
2023/12/21 02:00:50;;;;;;;1.67;0.93;;;21.90;51.90;;;;;;4882597;28;91819;-85
2023/12/21 02:03:16;;;;;;;1.23;0.82;;;21.90;52.10;;;;;;4879276;28;92015;-85
2023/12/21 02:05:42;;;;;;;2.42;0.98;;;21.90;51.90;;;;;;4868709;28;93586;-85
2023/12/21 02:08:08;;;;;;;1.05;0.80;;;21.90;52.00;;;;;;4868145;28;91932;-85
2023/12/21 02:10:35;;;;;;;1.63;0.88;;;21.90;52.10;;;;;;4864034;28;91951;-84
2023/12/21 02:13:00;;;;;;;1.05;0.88;;;21.80;52.00;;;;;;4864279;28;92999;-83
2023/12/21 02:15:26;;;;;;;1.83;0.88;;;21.80;52.00;;;;;;4867613;28;91686;-86
2023/12/21 02:17:54;;;;;;;0.63;0.60;;;21.80;52.10;;;;;;4858646;28;92818;-85
2023/12/21 02:20:20;;;;;;;2.58;0.85;;;21.80;52.10;;;;;;4857075;28;92196;-84
2023/12/21 02:22:48;;;;;;;2.75;1.00;;;21.80;52.10;;;;;;4855643;28;94457;-84
2023/12/21 02:25:15;;;;;;;1.00;0.68;;;21.80;52.20;;;;;;4854381;29;94525;-83
2023/12/21 02:27:40;;;;;;;1.00;0.90;;;21.80;52.20;;;;;;4857543;28;92498;-84
2023/12/21 02:30:06;;;;;;;1.10;0.82;;;21.80;52.20;;;;;;4855047;29;93041;-84
2023/12/21 02:32:32;;;;;;;1.10;0.80;;;21.80;52.00;;;;;;4856199;28;93430;-84
2023/12/21 02:34:58;;;;;;;1.85;0.77;;;21.80;52.10;;;;;;4854013;28;92794;-84
2023/12/21 02:37:24;;;;;;;1.33;0.80;;;21.80;52.10;;;;;;4853447;28;92313;-84
2023/12/21 02:39:49;;;;;;;2.17;1.00;;;21.70;52.10;;;;;;4854248;28;92187;-84
2023/12/21 02:42:15;;;;;;;1.75;1.00;;;21.70;52.10;;;;;;4855324;29;92429;-85
2023/12/21 02:44:41;;;;;;;1.00;0.80;;;21.70;52.10;;;;;;4855209;28;92312;-83
2023/12/21 02:47:06;;;;;;;0.90;0.70;;;21.70;52.10;;;;;;4853263;28;92958;-86
2023/12/21 02:49:32;;;;;;;1.55;0.85;;;21.70;52.00;;;;;;4853416;28;92437;-83
2023/12/21 02:51:57;;;;;;;1.25;0.80;;;21.70;52.10;;;;;;4855018;28;93185;-84
2023/12/21 02:54:23;;;;;;;2.35;1.08;;;21.60;52.10;;;;;;4852506;29;93061;-83
2023/12/21 02:56:49;;;;;;;1.00;0.88;;;21.60;52.10;;;;;;4854982;28;92386;-85
2023/12/21 02:59:15;;;;;;;0.90;0.68;;;21.60;52.20;;;;;;4854283;28;92742;-84
2023/12/21 03:01:41;;;;;;;1.75;1.08;;;21.60;52.20;;;;;;4853495;28;93086;-83
2023/12/21 03:04:11;;;;;;;1.65;0.80;;;21.60;52.20;;;;;;4852174;29;94023;-87
2023/12/21 03:06:36;;;;;;;1.98;1.00;;;21.60;52.10;;;;;;4852687;29;92202;-82
2023/12/21 03:09:02;;;;;;;1.23;0.70;;;21.60;52.20;;;;;;4850978;28;92770;-83
2023/12/21 03:11:28;;;;;;;1.00;0.70;;;21.60;52.40;;;;;;4851077;28;94605;-85
2023/12/21 03:13:54;;;;;;;0.88;0.75;;;21.60;52.20;;;;;;4851718;28;93205;-84
2023/12/21 03:16:19;;;;;;;1.45;0.70;;;21.60;52.40;;;;;;4852323;29;92182;-84
2023/12/21 03:18:48;;;;;;;1.38;0.98;;;21.50;52.20;;;;;;4851980;28;92779;-84
2023/12/21 03:21:15;;;;;;;1.98;1.00;;;21.60;52.00;;;;;;4852404;28;93725;-83
2023/12/21 03:23:41;;;;;;;1.23;0.90;;;21.50;52.10;;;;;;4851794;29;95776;-84
2023/12/21 03:26:09;;;;;;;1.95;0.80;;;21.50;52.30;;;;;;4852303;28;92641;-84
2023/12/21 03:28:35;;;;;;;0.83;0.70;;;21.50;52.10;;;;;;4851957;28;91864;-86
2023/12/21 03:31:01;;;;;;;1.50;0.80;;;21.50;52.20;;;;;;4850731;28;92431;-84
2023/12/21 03:33:27;;;;;;;1.52;0.90;;;21.50;52.20;;;;;;4852859;29;92936;-84
2023/12/21 03:35:53;;;;;;;1.58;0.68;;;21.50;52.40;;;;;;4851787;28;93281;-84
2023/12/21 03:38:18;;;;;;;1.08;0.90;;;21.50;52.20;;;;;;4850363;29;92499;-87
2023/12/21 03:40:44;;;;;;;1.02;0.80;;;21.50;52.30;;;;;;4849975;28;92957;-87
2023/12/21 03:43:10;;;;;;;1.70;1.15;;;21.50;52.20;;;;;;4851262;28;92685;-84
2023/12/21 03:45:40;;;;;;;1.17;0.68;;;21.50;52.10;;;;;;4853067;28;92802;-82
2023/12/21 03:48:10;;;;;;;1.42;0.70;;;21.50;52.20;;;;;;4850547;29;92939;-84
2023/12/21 03:50:36;;;;;;;1.17;0.90;;;21.50;52.10;;;;;;4849250;28;92815;-84
2023/12/21 03:53:02;;;;;;;2.05;1.30;;;21.50;52.00;;;;;;4850381;28;91711;-83
2023/12/21 03:55:27;;;;;;;1.05;0.70;;;21.40;52.10;;;;;;4849470;28;92850;-83
2023/12/21 03:57:53;;;;;;;1.45;0.93;;;21.40;52.20;;;;;;4850802;28;92725;-82
2023/12/21 04:00:25;;;;;;;1.02;0.80;;;21.40;52.30;;;;;;4850839;29;94172;-81
2023/12/21 04:02:51;;;;;;;1.00;0.77;;;21.40;52.30;;;;;;4849697;28;93359;-83
2023/12/21 04:05:17;;;;;;;1.50;0.70;;;21.40;52.10;;;;;;4851416;29;92222;-82
2023/12/21 04:07:42;;;;;;;0.82;0.70;;;21.40;52.00;;;;;;4852988;28;93145;-85
2023/12/21 04:10:08;;;;;;;0.70;0.60;;;21.40;52.20;;;;;;4851409;28;92280;-84
2023/12/21 04:12:34;;;;;;;1.33;0.88;;;21.30;52.20;;;;;;4852265;28;92855;-83
2023/12/21 04:15:00;;;;;;;0.70;0.55;;;21.40;52.20;;;;;;4852197;28;92580;-84
2023/12/21 04:17:26;;;;;;;2.03;0.70;;;21.40;52.10;;;;;;4852815;28;91580;-81
2023/12/21 04:19:52;;;;;;;1.70;0.88;;;21.30;52.10;;;;;;4850996;28;93055;-82
2023/12/21 04:22:18;;;;;;;1.17;0.90;;;21.30;52.10;;;;;;4851366;28;92812;-84
2023/12/21 04:24:44;;;;;;;1.88;0.85;;;21.30;52.70;;;;;;4852962;29;93899;-84
2023/12/21 04:27:10;;;;;;;0.95;0.55;;;21.30;52.00;;;;;;4849721;29;93239;-84
2023/12/21 04:29:38;;;;;;;1.08;0.77;;;21.30;52.10;;;;;;4850905;28;93819;-84
2023/12/21 04:32:05;;;;;;;0.65;0.65;;;21.30;52.00;;;;;;4850765;28;92791;-83
2023/12/21 04:34:31;;;;;;;1.33;0.70;;;21.30;52.10;;;;;;4850478;28;92480;-84
2023/12/21 04:36:56;;;;;;;1.80;1.05;;;21.30;52.00;;;;;;4850605;28;92825;-82
2023/12/21 04:39:22;;;;;;;0.98;0.60;;;21.30;52.10;;;;;;4851740;28;93011;-85
2023/12/21 04:41:48;;;;;;;1.23;0.95;;;21.30;52.10;;;;;;4851804;28;92609;-82
2023/12/21 04:44:14;;;;;;;1.63;0.70;;;21.20;52.00;;;;;;4852602;28;92898;-84
2023/12/21 04:46:40;;;;;;;0.98;0.70;;;21.20;52.00;;;;;;4851581;28;92412;-85
2023/12/21 04:49:06;;;;;;;0.73;0.70;;;21.20;52.20;;;;;;4851374;28;95925;-83
2023/12/21 04:51:32;;;;;;;0.80;0.80;;;21.20;52.10;;;;;;4852717;28;93705;-82
2023/12/21 04:53:57;;;;;;;1.33;0.75;;;21.20;52.10;;;;;;4852367;28;92956;-83
2023/12/21 04:56:23;;;;;;;1.15;0.70;;;21.20;52.10;;;;;;4852374;28;92464;-83
2023/12/21 04:58:48;;;;;;;1.10;0.63;;;21.20;52.00;;;;;;4851689;28;92074;-82
2023/12/21 05:01:14;;;;;;;1.08;0.70;;;21.20;52.30;;;;;;4852208;28;92840;-87
2023/12/21 05:03:40;;;;;;;0.75;0.60;;;21.20;52.20;;;;;;4851805;28;92755;-86
2023/12/21 05:06:05;;;;;;;1.42;1.10;;;21.20;52.10;;;;;;4850598;28;91736;-85
2023/12/21 05:08:31;;;;;;;1.67;1.00;;;21.20;52.20;;;;;;4851783;29;92526;-83
2023/12/21 05:10:57;;;;;;;1.92;0.95;;;21.20;52.10;;;;;;4851510;28;95247;-84
2023/12/21 05:13:22;;;;;;;1.30;0.68;;;21.20;52.10;;;;;;4853438;28;94190;-84
2023/12/21 05:15:48;;;;;;;1.08;0.90;;;21.20;52.10;;;;;;4855129;28;92772;-84
2023/12/21 05:18:14;;;;;;;0.70;0.60;;;21.20;52.20;;;;;;4855926;29;93590;-83
2023/12/21 05:20:39;;;;;;;0.85;0.57;;;21.10;52.10;;;;;;4853921;29;95122;-82
2023/12/21 05:23:05;;;;;;;1.05;0.77;;;21.10;52.00;;;;;;4853487;28;92095;-84
2023/12/21 05:25:31;;;;;;;1.08;0.70;;;21.10;52.00;;;;;;4852493;28;93371;-85
2023/12/21 05:27:56;;;;;;;1.58;0.80;;;21.10;52.00;;;;;;4854262;28;92750;-85
2023/12/21 05:30:24;;;;;;;1.45;0.82;;;21.10;52.00;;;;;;4853304;28;94070;-85
2023/12/21 05:32:49;;;;;;;1.52;0.77;;;21.10;52.00;;;;;;4853708;29;92329;-85
2023/12/21 05:35:15;;;;;;;1.48;0.70;;;21.10;52.00;;;;;;4852935;29;92926;-83
2023/12/21 05:37:41;;;;;;;1.30;0.90;;;21.10;52.10;;;;;;4850542;29;96648;-87
2023/12/21 05:40:08;;;;;;;1.85;0.90;;;21.10;52.10;;;;;;4851198;28;93769;-83
2023/12/21 05:42:33;;;;;;;0.73;0.60;;;21.10;52.10;;;;;;4853340;28;92456;-84
2023/12/21 05:44:59;;;;;;;1.30;0.90;;;21.10;52.10;;;;;;4854069;29;92906;-84
2023/12/21 05:47:25;;;;;;;1.95;0.80;;;21.10;52.30;;;;;;4854769;28;92562;-84
2023/12/21 05:49:50;;;;;;;2.63;1.17;;;21.10;52.30;;;;;;4854903;29;92411;-86
2023/12/21 05:52:16;;;;;;;0.90;0.70;;;21.00;52.10;;;;;;4852132;28;93363;-83
2023/12/21 05:54:42;;;;;;;1.27;0.80;;;21.00;52.10;;;;;;4854079;29;92022;-87
2023/12/21 05:57:12;;;;;;;1.55;1.05;;;21.10;52.10;;;;;;4851298;28;94024;-85
2023/12/21 05:59:38;;;;;;;3.78;1.00;;;21.10;52.20;;;;;;4853047;29;92796;-83
2023/12/21 06:02:04;;;;;;;2.25;0.93;;;21.10;52.10;;;;;;4853233;28;93968;-83
2023/12/21 06:04:30;;;;;;;2.47;1.10;;;21.00;52.10;;;;;;4853013;28;92488;-84
2023/12/21 06:06:56;;;;;;;3.42;0.93;;;21.00;52.20;;;;;;4853676;29;96223;-83
2023/12/21 06:09:22;;;;;;;2.70;0.98;;;21.00;52.10;;;;;;4854559;28;92913;-82
2023/12/21 06:11:48;;;;;;;2.15;1.02;;;21.10;52.30;;;;;;4852650;28;92566;-86
2023/12/21 06:14:14;;;;;;;2.63;1.20;;;21.10;52.30;;;;;;4852372;29;92443;-83
2023/12/21 06:16:39;;;;;;;5.45;1.30;;;21.10;52.40;;;;;;4853435;28;92952;-83
2023/12/21 06:19:09;;;;;;;1.95;1.23;;;21.10;52.50;;;;;;4853509;28;94732;-83
2023/12/21 06:21:38;;;;;;;3.80;1.40;;;21.10;52.50;;;;;;4854633;28;92433;-84
2023/12/21 06:24:05;;;;;;;4.63;1.58;;;21.10;52.40;;;;;;4853569;28;92295;-84
2023/12/21 06:26:31;;;;;;;10.02;2.03;;;21.10;52.30;;;;;;4854364;28;93475;-84
2023/12/21 06:28:56;;;;;;;4.70;1.20;;;21.10;52.30;;;;;;4855517;28;93774;-87
2023/12/21 06:31:23;;;;;;;11.15;2.88;;;21.10;52.20;;;;;;4857313;28;92618;-84
2023/12/21 06:33:49;;;;;;;10.43;2.63;;;21.10;52.50;;;;;;4855411;28;92424;-88
2023/12/21 06:36:15;;;;;;;9.82;2.97;;;21.10;52.60;;;;;;4855421;28;92591;-85
2023/12/21 06:38:41;;;;;;;7.45;2.30;;;21.10;52.40;;;;;;4855294;28;92362;-89
2023/12/21 06:41:06;;;;;;;8.65;2.40;;;21.10;52.00;;;;;;4856944;29;92627;-86
2023/12/21 06:43:32;;;;;;;6.10;1.70;;;21.10;51.90;;;;;;4859894;28;91893;-85
2023/12/21 06:45:58;;;;;;;3.30;1.40;;;21.10;51.80;;;;;;4858394;29;93395;-84
2023/12/21 06:48:23;;;;;;;7.93;2.38;;;21.10;51.90;;;;;;4856622;28;92529;-86
2023/12/21 06:50:49;;;;;;;5.25;1.42;;;21.20;52.20;;;;;;4854982;28;93713;-87
2023/12/21 06:53:17;;;;;;;3.53;1.33;;;21.30;52.40;;;;;;4852762;28;93000;-85
2023/12/21 06:55:43;;;;;;;7.25;1.60;;;21.40;52.40;;;;;;4854788;29;92762;-85
2023/12/21 06:58:09;;;;;;;2.45;1.25;;;21.60;52.40;;;;;;4852552;29;95576;-89
2023/12/21 07:00:35;;;;;;;3.67;1.70;;;21.60;52.60;;;;;;4856860;28;92464;-87
2023/12/21 07:03:00;;;;;;;4.72;1.52;;;21.70;52.60;;;;;;4854661;29;92791;-84
2023/12/21 07:05:26;;;;;;;6.63;1.67;;;21.70;52.60;;;;;;4851529;28;93289;-85
2023/12/21 07:07:55;;;;;;;6.07;2.60;;;21.80;52.80;;;;;;4852762;28;92402;-84
2023/12/21 07:10:21;;;;;;;6.22;1.70;;;21.90;52.70;;;;;;4853129;28;92539;-87
2023/12/21 07:12:47;;;;;;;6.47;1.73;;;22.00;52.90;;;;;;4851545;29;92546;-86
2023/12/21 07:15:13;;;;;;;5.07;1.38;;;22.10;52.70;;;;;;4854044;28;93324;-83
2023/12/21 07:17:39;;;;;;;4.05;1.40;;;22.10;52.40;;;;;;4851739;29;93842;-85
2023/12/21 07:20:05;;;;;;;3.72;1.30;;;22.20;52.40;;;;;;4852820;29;92566;-87
2023/12/21 07:22:31;;;;;;;4.15;1.38;;;22.20;52.30;;;;;;4852933;28;92670;-88
2023/12/21 07:24:56;;;;;;;2.60;1.38;;;22.20;52.30;;;;;;4852503;29;93803;-86
2023/12/21 07:27:22;;;;;;;3.13;0.93;;;22.30;52.50;;;;;;4854135;28;94371;-81
2023/12/21 07:29:49;;;;;;;3.60;1.42;;;22.40;52.30;;;;;;4854539;28;92380;-86
2023/12/21 07:32:15;;;;;;;4.30;2.08;;;22.40;52.30;;;;;;4854247;29;91258;-86
2023/12/21 07:34:41;;;;;;;3.05;1.33;;;22.40;52.50;;;;;;4854148;28;92909;-83
2023/12/21 07:37:08;;;;;;;4.18;1.73;;;22.50;52.30;;;;;;4853355;28;93147;-85
2023/12/21 07:39:34;;;;;;;4.22;1.15;;;22.50;52.40;;;;;;4852085;28;93546;-84
2023/12/21 07:42:01;;;;;;;5.22;1.63;;;22.60;52.10;;;;;;4852191;29;93081;-85
2023/12/21 07:44:27;;;;;;;2.92;1.20;;;22.60;52.40;;;;;;4853846;28;93350;-84
2023/12/21 07:46:53;;;;;;;5.45;1.23;;;22.70;52.40;;;;;;4854075;29;95292;-83
2023/12/21 07:49:18;;;;;;;7.60;1.45;;;22.70;52.10;;;;;;4855744;28;92296;-84
2023/12/21 07:51:44;;;;;;;3.70;1.60;;;22.80;52.30;;;;;;4854394;28;92939;-87
2023/12/21 07:54:10;;;;;;;4.45;1.42;;;22.80;52.20;;;;;;4852901;28;96975;-87
2023/12/21 07:56:35;;;;;;;4.85;1.30;;;22.80;52.20;;;;;;4854772;28;92301;-86
2023/12/21 07:59:07;;;;;;;4.32;1.25;;;22.90;52.20;;;;;;4851363;28;92714;-84
2023/12/21 08:01:33;;;;;;;3.63;1.40;;;22.90;52.20;;;;;;4850815;28;92035;-84
2023/12/21 08:03:59;;;;;;;5.97;1.42;;;23.00;52.30;;;;;;4850973;28;93829;-83
2023/12/21 08:06:25;;;;;;;3.55;1.55;;;23.00;52.50;;;;;;4848976;28;94703;-83
2023/12/21 08:08:54;;;;;;;3.60;1.80;;;22.90;52.40;;;;;;4847762;29;92629;-84
2023/12/21 08:11:22;;;;;;;5.82;1.98;;;22.90;52.20;;;;;;4849988;28;92599;-83
2023/12/21 08:13:50;;;;;;;4.05;1.38;;;22.80;52.20;;;;;;4848807;29;93552;-86
2023/12/21 08:16:17;;;;;;;4.85;1.75;;;22.80;52.40;;;;;;4849502;28;92646;-83
2023/12/21 08:18:44;;;;;;;3.92;1.52;;;22.80;52.60;;;;;;4851124;29;92605;-83
2023/12/21 08:21:10;;;;;;;3.40;1.42;;;22.80;52.60;;;;;;4852071;28;92155;-82
2023/12/21 08:23:35;;;;;;;4.22;1.02;;;22.80;52.80;;;;;;4850233;28;92741;-87
2023/12/21 08:26:03;;;;;;;4.55;1.65;;;22.80;52.90;;;;;;4858148;28;92670;-86
2023/12/21 08:28:30;;;;;;;7.32;1.48;;;22.80;52.70;;;;;;4871434;28;94042;-85
2023/12/21 08:30:56;;;;;;;4.82;1.67;;;22.70;52.80;;;;;;4872024;28;91692;-84
2023/12/21 08:33:22;;;;;;;4.22;1.50;;;22.70;52.80;;;;;;4872585;28;92235;-85
2023/12/21 08:35:48;;;;;;;3.60;1.08;;;22.70;52.80;;;;;;4868209;28;92173;-85
2023/12/21 08:38:13;;;;;;;3.47;1.35;;;22.70;53.00;;;;;;4859811;28;92376;-86
2023/12/21 08:40:39;;;;;;;2.95;1.40;;;22.70;53.00;;;;;;4867962;28;96077;-89
2023/12/21 08:43:05;;;;;;;3.10;1.30;;;22.70;53.10;;;;;;4855692;28;94553;-88
2023/12/21 08:45:32;;;;;;;3.42;1.50;;;22.70;53.30;;;;;;4866767;28;91713;-86
2023/12/21 08:47:58;;;;;;;6.18;1.90;;;22.70;53.50;;;;;;4875400;28;91990;-86
2023/12/21 08:50:23;;;;;;;5.53;1.20;;;22.70;53.40;;;;;;4880478;28;93076;-86
2023/12/21 08:52:49;;;;;;;4.97;1.10;;;22.70;53.80;;;;;;4878384;28;94015;-83
2023/12/21 08:55:14;;;;;;;3.45;1.27;;;22.70;53.40;;;;;;4866341;29;93807;-83
2023/12/21 08:57:40;;;;;;;3.67;1.10;;;22.70;53.50;;;;;;4864900;28;91985;-84
2023/12/21 09:00:14;;;;;;;3.20;1.40;;;22.70;53.30;;;;;;4866194;28;93149;-83
2023/12/21 09:02:40;;;;;;;2.40;1.20;;;22.70;53.40;;;;;;4861657;28;92819;-83
2023/12/21 09:05:06;;;;;;;4.95;1.65;;;22.70;53.30;;;;;;4856000;28;92498;-85
2023/12/21 09:07:33;;;;;;;2.72;1.35;;;22.70;53.20;;;;;;4857276;28;92979;-85
2023/12/21 09:10:00;;;;;;;2.55;1.17;;;22.80;53.00;;;;;;4855429;28;91754;-84
2023/12/21 09:12:28;;;;;;;3.55;1.20;;;22.70;53.00;;;;;;4857241;29;93643;-85
2023/12/21 09:14:55;;;;;;;2.58;1.20;;;22.70;52.80;;;;;;4856464;28;92604;-87
2023/12/21 09:17:21;;;;;;;2.75;1.10;;;22.80;52.80;;;;;;4852715;28;93908;-85
2023/12/21 09:19:46;;;;;;;3.35;1.40;;;22.80;53.30;;;;;;4853219;28;92985;-83
2023/12/21 09:22:12;;;;;;;8.25;2.13;;;22.80;53.10;;;;;;4848680;28;92479;-84
2023/12/21 09:24:38;;;;;;;4.30;1.20;;;22.80;53.10;;;;;;4850788;28;92574;-85
2023/12/21 09:27:04;;;;;;;4.63;2.15;;;22.80;53.10;;;;;;4848802;28;92676;-85
2023/12/21 09:29:30;;;;;;;8.18;3.08;;;22.70;52.70;;;;;;4848746;29;92585;-84
2023/12/21 09:31:56;;;;;;;14.63;4.95;;;22.70;52.40;;;;;;4848815;28;93084;-82
2023/12/21 09:34:22;;;;;;;12.50;4.07;;;22.70;52.50;;;;;;4850288;28;92442;-83
2023/12/21 09:36:48;;;;;;;12.25;3.85;;;22.70;52.40;;;;;;4851416;28;92608;-82
2023/12/21 09:39:13;;;;;;;7.43;3.40;;;22.70;52.20;;;;;;4851099;28;92943;-82
2023/12/21 09:41:39;;;;;;;14.48;4.47;;;22.70;52.30;;;;;;4864652;28;96445;-81
2023/12/21 09:44:05;;;;;;;14.02;3.97;;;22.70;52.20;;;;;;4851613;28;93720;-82
2023/12/21 09:46:38;;;;;;;13.13;4.72;;;22.70;52.10;;;;;;4851057;28;92712;-85
2023/12/21 09:49:06;;;;;;;16.60;4.05;;;22.80;52.40;;;;;;4849737;29;93834;-83
2023/12/21 09:51:34;;;;;;;10.00;3.15;;;22.70;52.60;;;;;;4852597;29;92997;-85
2023/12/21 09:54:01;;;;;;;10.60;4.32;;;22.70;52.40;;;;;;4850996;28;92489;-85
2023/12/21 09:56:28;;;;;;;15.10;5.03;;;22.70;52.50;;;;;;4852488;28;92535;-81
2023/12/21 09:58:56;;;;;;;16.17;3.88;;;22.80;52.50;;;;;;4852453;29;92206;-83
2023/12/21 10:01:22;;;;;;;11.18;3.33;;;22.80;52.60;;;;;;4851744;28;93152;-81
2023/12/21 10:03:48;;;;;;;7.38;3.35;;;22.80;52.50;;;;;;4848977;28;93138;-81
2023/12/21 10:06:15;;;;;;;10.00;3.15;;;22.70;52.50;;;;;;4851441;28;94077;-83
2023/12/21 10:08:41;;;;;;;9.48;3.10;;;22.70;52.60;;;;;;4849522;28;93123;-83
2023/12/21 10:11:07;;;;;;;12.55;4.47;;;22.70;52.50;;;;;;4850944;28;92781;-83
2023/12/21 10:13:34;;;;;;;19.50;4.53;;;22.70;52.40;;;;;;4847514;28;92645;-83
2023/12/21 10:16:01;;;;;;;15.27;3.95;;;22.70;52.30;;;;;;4856531;28;93229;-82
2023/12/21 10:18:27;;;;;;;14.88;4.78;;;22.70;52.40;;;;;;4847606;29;92892;-82
2023/12/21 10:20:56;;;;;;;18.98;5.25;;;22.80;52.40;;;;;;4848424;29;95699;-85
2023/12/21 10:23:21;;;;;;;15.02;3.28;;;22.80;52.60;;;;;;4847330;28;91955;-85
2023/12/21 10:25:48;;;;;;;17.90;4.50;;;22.80;52.80;;;;;;4845544;29;92887;-83
2023/12/21 10:28:14;;;;;;;17.80;5.88;;;22.80;53.20;;;;;;4848833;28;93070;-85
2023/12/21 10:30:40;;;;;;;21.98;5.38;;;22.80;53.30;;;;;;4852322;28;93711;-85
2023/12/21 10:33:08;;;;;;;19.00;5.30;;;22.80;53.00;;;;;;4849748;28;93640;-85
2023/12/21 10:35:35;;;;;;;16.08;4.53;;;22.80;53.30;;;;;;4849050;28;92161;-85
2023/12/21 10:38:02;;;;;;;16.42;5.38;;;22.70;53.70;;;;;;4848353;28;93041;-85
2023/12/21 10:40:29;;;;;;;13.63;4.65;;;22.70;53.70;;;;;;4850102;28;92958;-84
2023/12/21 10:42:56;;;;;;;12.32;3.97;;;22.70;53.70;;;;;;4849311;28;93230;-84
2023/12/21 10:45:22;;;;;;;14.32;4.30;;;22.80;53.50;;;;;;4850428;28;92324;-86
2023/12/21 10:47:52;;;;;;;13.90;3.75;;;22.80;53.60;;;;;;4847985;28;92124;-88
2023/12/21 10:50:19;;;;;;;17.10;4.13;;;22.80;53.80;;;;;;4847388;28;92958;-84
2023/12/21 10:52:46;;;;;;;11.32;3.28;;;22.80;53.90;;;;;;4846372;28;93869;-83
2023/12/21 10:55:14;;;;;;;10.57;4.38;;;22.80;53.90;;;;;;4846427;28;93560;-83
2023/12/21 10:57:41;;;;;;;6.43;2.77;;;22.80;53.80;;;;;;4847915;28;92992;-85
2023/12/21 11:00:18;;;;;;;10.25;3.78;;;22.80;52.60;;;;;;4847584;29;95449;-83
2023/12/21 11:02:46;;;;;;;10.50;3.13;;;22.80;53.10;;;;;;4847031;28;95252;-84
2023/12/21 11:05:19;;;;;;;8.18;2.33;;;22.70;52.70;;;;;;4850940;28;92954;-84
2023/12/21 11:07:50;;;;;;;10.90;3.63;;;22.80;52.60;;;;;;4849471;28;93713;-83
2023/12/21 11:10:17;;;;;;;8.65;2.33;;;22.70;53.00;;;;;;4848827;28;92856;-83
2023/12/21 11:12:43;;;;;;;7.72;2.63;;;22.70;52.70;;;;;;4850930;28;93238;-82
2023/12/21 11:15:09;;;;;;;6.55;2.33;;;22.70;53.10;;;;;;4851328;28;93058;-83
2023/12/21 11:17:36;;;;;;;8.50;3.05;;;22.80;53.10;;;;;;4847044;28;92772;-85
2023/12/21 11:20:03;;;;;;;6.35;2.22;;;22.80;53.40;;;;;;4846931;28;93628;-84
2023/12/21 11:22:29;;;;;;;9.30;3.10;;;22.80;53.50;;;;;;4849008;28;93303;-84
2023/12/21 11:25:03;;;;;;;6.97;2.78;;;22.80;53.50;;;;;;4850067;29;92717;-86
2023/12/21 11:27:30;;;;;;;5.30;1.70;;;22.80;53.80;;;;;;4852866;28;92352;-87
2023/12/21 11:30:08;;;;;;;8.00;2.50;;;22.80;53.30;;;;;;4852878;28;92523;-89
2023/12/21 11:32:34;;;;;;;6.15;2.38;;;22.80;54.10;;;;;;4851902;28;92907;-85
2023/12/21 11:35:00;;;;;;;6.93;2.33;;;22.80;53.70;;;;;;4852291;28;92715;-83
2023/12/21 11:37:26;;;;;;;4.65;2.00;;;22.80;53.50;;;;;;4852452;28;91776;-89
2023/12/21 11:39:53;;;;;;;5.85;1.75;;;22.80;53.30;;;;;;4852101;28;93299;-83
2023/12/21 11:42:21;;;;;;;6.80;2.75;;;22.80;53.50;;;;;;4852643;28;92616;-84
2023/12/21 11:44:55;;;;;;;9.43;3.08;;;22.80;53.50;;;;;;4851504;28;94526;-84
2023/12/21 11:47:20;;;;;;;4.78;1.80;;;22.80;53.40;;;;;;4849675;28;92917;-83
2023/12/21 11:49:46;;;;;;;7.00;2.97;;;22.80;53.10;;;;;;4850149;29;92786;-84
2023/12/21 11:52:23;;;;;;;7.55;2.17;;;22.80;53.90;;;;;;4847500;28;92699;-83
2023/12/21 11:54:48;;;;;;;13.60;2.28;;;22.70;53.30;;;;;;4842653;28;92780;-86
2023/12/21 11:57:15;;;;;;;7.30;2.30;;;22.70;53.50;;;;;;4842232;29;92499;-86
2023/12/21 11:59:41;;;;;;;5.47;1.95;;;22.70;54.40;;;;;;4845275;28;93174;-87
2023/12/21 12:02:07;;;;;;;5.85;2.65;;;22.70;53.70;;;;;;4845228;28;92501;-87
2023/12/21 12:04:33;;;;;;;15.00;2.47;;;22.70;54.50;;;;;;4844547;28;92716;-88
2023/12/21 12:07:01;;;;;;;4.57;1.70;;;22.80;54.30;;;;;;4845118;28;92575;-87
2023/12/21 12:09:28;;;;;;;4.67;2.47;;;22.70;53.10;;;;;;4845636;28;93745;-86
2023/12/21 12:11:54;;;;;;;10.23;1.75;;;22.70;54.90;;;;;;4847258;29;93884;-82
2023/12/21 12:14:20;;;;;;;5.95;2.30;;;22.70;54.20;;;;;;4851706;28;92627;-88
2023/12/21 12:16:46;;;;;;;9.77;2.03;;;22.70;54.20;;;;;;4851704;28;92221;-87
2023/12/21 12:19:12;;;;;;;5.05;1.70;;;22.80;54.50;;;;;;4849799;28;94076;-88
2023/12/21 12:21:38;;;;;;;12.43;2.30;;;22.80;54.30;;;;;;4849433;28;93068;-88
2023/12/21 12:24:06;;;;;;;7.20;2.17;;;22.80;54.50;;;;;;4849000;28;93355;-85
2023/12/21 12:26:34;;;;;;;10.02;1.90;;;22.90;55.00;;;;;;4849108;29;92308;-86
2023/12/21 12:28:59;;;;;;;4.88;1.92;;;22.90;54.80;;;;;;4848450;28;92799;-86
2023/12/21 12:31:25;;;;;;;8.48;2.30;;;22.90;54.60;;;;;;4850568;28;92345;-85
2023/12/21 12:33:51;;;;;;;13.23;2.63;;;23.00;54.20;;;;;;4849108;28;93691;-85
2023/12/21 12:36:19;;;;;;;18.48;2.58;;;23.00;54.80;;;;;;4849521;28;92492;-84
2023/12/21 12:38:49;;;;;;;12.02;2.83;;;23.00;55.20;;;;;;4847304;28;94479;-84
2023/12/21 12:41:23;;;;;;;21.60;3.63;;;23.10;55.30;;;;;;4847695;28;92554;-89